To NAV CANADA Home Page Login to a new session Search on AWWS site Feedback and Comments Disclaimer Vers la page française équivalente Tips FAQ What's new on the site To the Forecasts and Observations / NOTAM section To "File a Flight Plan" website Publications and other links Update of the User's profile FIC Telephone Numbers My Weather Data Folder Route Weather Data Regional Weather Data Local Weather Data To the Forecasts and Observations / NOTAM section
Request Generated 03/29/2015 at 16:03:03 UTC . Weather information available at that time is displayed.

METAR/TAF

STONY RAPIDS/SK    (show WxCam)

METAR CYSF 291600Z AUTO 27004KT 9SM CLR M03/M08 A2976 RMK SLP094=
METAR CYSF 291500Z AUTO 30004KT 9SM CLR M05/M09 A2976 RMK SLP095=
METAR CYSF 291400Z AUTO 00000KT 9SM CLR M06/M09 A2976 RMK SLP094=

TAF CYSF 291138Z 2912/2924 26005KT P6SM SKC PROB30 2912/2916 1/2SM
FZFG OVC002
RMK FCST BASED ON AUTO OBS. NXT FCST BY 291800Z=
Your time UTC time
Weather data provided by Environment Canada and NAV CANADA